Weather observations for the past three days for
Aitkin Municipal Airport - Steve Kurtz Field
Imperial (Metric)
Date Time (cdt) Wind (mph) Vis. (mi.) Weather Sky Cond. Temperature (ºF) Relative Humidity Wind Chill (°F) Heat Index (°F) Pressure Precipitation (in)
Air Dwpt 6 hour altimeter (in) sea level (mb) 1 hr 3 hr 6 hr
Max. Min.
07 13:55 W 9 G 18 10.00 Partly Cloudy SCT065 51.8 19.4 28% 29.81 0.0
07 13:36 W 8 G 16 10.00 Partly Cloudy SCT065 51.8 19.4 28% 29.81 0.0
07 13:15 W 7 10.00 Partly Cloudy SCT065 51.8 19.4 28% 29.81 0.0
07 12:55 W 10 10.00 Partly Cloudy SCT065 50 19.4 30% 46 29.82 0.0
07 12:35 W 9 G 22 10.00 Partly Cloudy SCT065 48.2 19.4 32% 45 29.83 0.0
07 12:15 W 10 G 16 10.00 Partly Cloudy SCT065 50 19.4 30% 46 29.83 0.0
07 11:55 W 8 10.00 Partly Cloudy SCT065 50 19.4 30% 47 29.84 0.0
07 11:35 SW 9 10.00 Fair CLR 50 21.2 32% 47 29.84 0.0
07 11:16 W 8 10.00 Partly Cloudy SCT065 48.2 21.2 34% 45 29.85 0.0
07 10:55 W 8 G 16 10.00 Fair CLR 48.2 19.4 32% 45 29.86 0.0
07 10:35 SW 7 10.00 Partly Cloudy SCT065 SCT090 48.2 19.4 32% 46 29.86 0.0
07 10:15 SW 9 10.00 Partly Cloudy SCT070 SCT090 46.4 21.2 37% 42 29.86 0.0
07 09:55 W 7 10.00 Partly Cloudy SCT070 46.4 21.2 37% 43 29.86 0.0
07 09:35 SW 9 10.00 Fair CLR 44.6 21.2 39% 40 29.87 0.0
07 09:15 SW 9 10.00 Partly Cloudy SCT080 44.6 21.2 39% 40 29.87 0.0
07 08:56 SW 8 10.00 Partly Cloudy SCT080 SCT085 42.8 24.8 49% 39 29.88 0.0
07 08:35 W 6 10.00 Mostly Cloudy BKN080 39.2 24.8 56% 36 29.89 0.0
07 08:15 SW 7 10.00 Fair CLR 39.2 24.8 56% 35 29.88 0.0
07 07:55 W 8 10.00 Partly Cloudy SCT070 39.2 26.6 61% 34 29.88 0.0
07 07:35 SW 5 10.00 Partly Cloudy SCT070 SCT085 37.4 26.6 65% 34 29.88 0.0
07 07:15 SW 5 10.00 Mostly Cloudy BKN085 33.8 26.6 75% 30 29.88 0.0
07 06:55 SW 5 10.00 Overcast OVC085 33.8 26.6 75% 30 29.88 0.0
07 06:36 SW 5 10.00 Overcast OVC085 32 26.6 80% 28 29.88 0.0
07 06:15 SW 3 10.00 Mostly Cloudy BKN085 26.6 26.6 100% 29.88 0.0
07 05:55 Calm 10.00 Partly Cloudy SCT085 24.8 24.8 100% 29.88 0.0
07 05:35 Calm 10.00 Fair CLR 24.8 24.8 100% 29.88 0.0
07 05:15 Calm 10.00 Fair CLR 24.8 24.8 100% 29.89 0.0
07 04:55 Calm 10.00 Fair CLR 24.8 24.8 100% 29.89 0.0
07 04:35 Calm 10.00 Fair CLR 26.6 24.8 93% 29.89 0.0
07 04:16 Calm 10.00 Fair CLR 28.4 24.8 86% 29.89 0.0
07 03:55 SW 3 10.00 Fair CLR 28.4 26.6 93% 29.89 0.0
07 03:35 Calm 10.00 Fair CLR 28.4 24.8 86% 29.89 0.0
07 03:15 Calm 10.00 Fair CLR 26.6 24.8 93% 29.89 0.0
07 02:55 Calm 10.00 Fair CLR 28.4 24.8 86% 29.88 0.0
07 02:35 Calm 10.00 Fair CLR 30.2 24.8 80% 29.89 0.0
07 02:15 Calm 10.00 Fair CLR 33.8 24.8 70% 29.89 0.0
07 01:56 SW 3 10.00 Fair CLR 35.6 24.8 65% 29.9 0.0
07 01:35 Calm 10.00 Partly Cloudy SCT075 35.6 24.8 65% 29.9 0.0
07 01:15 SW 3 10.00 Overcast SCT060 OVC075 37.4 24.8 60% 29.91 0.0
07 00:55 SW 3 10.00 Overcast SCT060 OVC075 37.4 24.8 60% 29.91 0.0
07 00:35 Calm 10.00 Overcast OVC075 37.4 24.8 60% 29.92 0.0
07 00:15 W 3 10.00 Overcast OVC070 37.4 24.8 60% 29.92 0.0
06 23:55 W 3 10.00 Overcast OVC070 37.4 24.8 60% 29.92 0.0
06 23:36 W 3 10.00 Overcast OVC070 37.4 24.8 60% 29.93 0.0
06 23:15 W 5 10.00 Overcast OVC070 39.2 24.8 56% 36 29.93 0.0
06 22:55 W 3 10.00 Overcast OVC070 39.2 24.8 56% 29.93 0.0
06 22:35 SW 3 10.00 Overcast OVC070 37.4 24.8 60% 29.94 0.0
06 22:15 Calm 10.00 Overcast OVC070 37.4 24.8 60% 29.94 0.0
06 21:55 W 3 10.00 Overcast OVC060 39.2 24.8 56% 29.94 0.0
06 21:35 W 3 10.00 Overcast OVC060 39.2 24.8 56% 29.94 0.0
06 21:16 Calm 10.00 Overcast OVC060 39.2 24.8 56% 29.94 0.0
06 20:55 Calm 10.00 Overcast OVC060 39.2 23 52% 29.94 0.0
06 20:35 Calm 10.00 Overcast OVC060 39.2 23 52% 29.94 0.0
06 20:15 W 3 10.00 Overcast OVC060 39.2 23 52% 29.94 0.0
06 19:55 NW 3 10.00 Overcast OVC060 39.2 23 52% 29.94 0.0
06 19:35 NW 5 10.00 Overcast OVC060 39.2 23 52% 36 29.94 0.0
06 19:15 NW 5 10.00 Overcast OVC060 41 23 49% 38 29.94 0.0
06 18:56 NW 6 10.00 Overcast SCT048 OVC050 41 24.8 53% 38 29.94 0.0
06 18:35 W 5 10.00 Overcast OVC050 41 24.8 53% 38 29.95 0.0
06 18:15 NW 7 10.00 Overcast OVC050 41 23 49% 37 29.95 0.0
06 17:55 W 5 10.00 Overcast BKN050 OVC060 42.8 23 46% 41 29.95 0.0
06 17:35 W 7 10.00 Overcast OVC060 42.8 23 46% 39 29.95 0.0
06 17:15 NW 8 10.00 Overcast SCT050 OVC060 42.8 21.2 42% 39 29.95 0.0
06 16:55 NW 6 10.00 Overcast OVC055 42.8 23 46% 40 29.95 0.0
06 16:36 NW 7 10.00 Overcast OVC049 42.8 21.2 42% 39 29.95 0.0
06 16:15 NW 6 10.00 Overcast OVC049 42.8 21.2 42% 40 29.95 0.0
06 15:55 W 5 10.00 Overcast BKN049 OVC055 42.8 21.2 42% 41 29.95 0.0
06 15:35 W 6 G 9 10.00 Overcast OVC049 42.8 21.2 42% 40 29.96 0.0
06 15:15 NW 7 10.00 Overcast OVC049 42.8 21.2 42% 39 29.96 0.0
06 14:55 W 6 10.00 Overcast OVC049 42.8 21.2 42% 40 29.96 0.0
06 14:35 W 9 10.00 Overcast OVC049 42.8 21.2 42% 38 29.96 0.0
06 14:16 NW 8 10.00 Overcast OVC047 42.8 21.2 42% 39 29.96 0.0
06 13:55 NW 7 10.00 Overcast OVC047 41 21.2 45% 37 29.97 0.0
06 13:35 W 8 10.00 Overcast OVC049 41 21.2 45% 36 29.97 0.0
06 13:15 NW 6 10.00 Overcast OVC047 41 19.4 42% 38 29.97 0.0
06 12:55 NW 10 G 16 10.00 Overcast OVC045 41 19.4 42% 35 29.97 0.0
06 12:35 W 8 G 16 10.00 Overcast OVC045 41 21.2 45% 36 29.97 0.0
06 12:15 W 6 10.00 Overcast OVC045 39.2 21.2 48% 36 29.98 0.0
06 11:55 NW 7 G 16 10.00 Overcast OVC045 39.2 19.4 45% 35 29.98 0.0
06 11:36 NW 10 10.00 Overcast OVC043 39.2 21.2 48% 33 29.99 0.0
06 11:15 NW 8 10.00 Overcast OVC041 39.2 21.2 48% 34 29.99 0.0
06 10:55 W 9 10.00 Overcast OVC041 37.4 21.2 52% 31 29.99 0.0
06 10:35 NW 6 10.00 Overcast OVC039 37.4 21.2 52% 33 29.99 0.0
06 10:15 W 3 10.00 Overcast OVC039 37.4 21.2 52% 29.99 0.0
06 09:55 NW 6 10.00 Overcast OVC039 37.4 21.2 52% 33 29.99 0.0
06 09:35 W 5 10.00 Overcast OVC036 35.6 21.2 56% 32 29.99 0.0
06 09:16 NW 3 10.00 Overcast OVC036 35.6 21.2 56% 29.99 0.0
06 08:55 NW 6 10.00 Overcast OVC036 35.6 21.2 56% 31 29.99 0.0
06 08:35 NW 6 10.00 Overcast OVC036 35.6 21.2 56% 31 29.98 0.0
06 08:15 NW 5 10.00 Overcast OVC038 35.6 21.2 56% 32 29.98 0.0
06 07:55 W 6 10.00 Overcast OVC038 35.6 21.2 56% 31 29.97 0.0
06 07:35 W 5 10.00 Overcast OVC040 35.6 21.2 56% 32 29.97 0.0
06 07:15 W 3 10.00 Overcast OVC040 33.8 21.2 60% 29.96 0.0
06 06:56 W 3 10.00 Overcast OVC040 33.8 21.2 60% 29.96 0.0
06 06:35 W 3 10.00 Overcast OVC040 33.8 21.2 60% 29.95 0.0
06 06:15 Calm 10.00 Overcast OVC040 33.8 21.2 60% 29.95 0.0
06 05:55 Calm 10.00 Overcast OVC040 33.8 21.2 60% 29.94 0.0
06 05:35 Calm 10.00 Overcast OVC040 33.8 21.2 60% 29.94 0.0
06 05:15 Calm 10.00 Overcast OVC040 33.8 21.2 60% 29.94 0.0
06 04:55 Calm 10.00 Overcast OVC040 33.8 21.2 60% 29.94 0.0
06 04:36 Calm 10.00 Overcast OVC040 33.8 21.2 60% 29.94 0.0
06 04:15 NW 3 10.00 Overcast OVC040 33.8 21.2 60% 29.94 0.0
06 03:55 N 6 10.00 Overcast OVC040 33.8 21.2 60% 29 29.94 0.0
06 03:35 N 5 10.00 Overcast OVC038 33.8 21.2 60% 30 29.93 0.0
06 03:15 N 6 10.00 Overcast OVC038 33.8 23 65% 29 29.93 0.0
06 02:55 N 5 10.00 Overcast OVC040 33.8 23 65% 30 29.93 0.0
06 02:35 N 5 10.00 Overcast OVC040 35.6 23 60% 32 29.93 0.0
06 02:16 N 5 10.00 Overcast OVC040 35.6 23 60% 32 29.93 0.0
06 01:55 N 5 10.00 Overcast OVC040 35.6 23 60% 32 29.93 0.0
06 01:35 N 3 10.00 Overcast OVC042 35.6 23 60% 29.94 0.0
06 01:15 N 5 10.00 Overcast OVC040 35.6 23 60% 32 29.93 0.0
06 00:55 N 7 10.00 Overcast OVC040 35.6 24.8 65% 31 29.93 0.0
06 00:35 N 6 10.00 Overcast OVC040 35.6 24.8 65% 31 29.93 0.0
06 00:15 NW 7 10.00 Overcast OVC040 35.6 23 60% 31 29.92 0.0
05 23:56 NW 6 10.00 Overcast OVC040 35.6 23 60% 31 29.92 0.0
05 23:35 NW 7 10.00 Overcast OVC042 37.4 23 56% 33 29.92 0.0
05 23:15 NW 7 10.00 Overcast OVC042 37.4 21.2 52% 33 29.91 0.0
05 22:55 NW 7 10.00 Overcast OVC044 37.4 23 56% 33 29.92 0.0
05 22:35 Calm 10.00 Overcast OVC046 35.6 21.2 56% 29.91 0.0
05 22:15 Calm 10.00 Overcast OVC044 35.6 21.2 56% 29.91 0.0
05 21:55 Calm 10.00 Overcast OVC044 35.6 21.2 56% 29.91 0.0
05 21:36 Calm 10.00 Overcast OVC044 35.6 21.2 56% 29.91 0.0
05 21:15 Calm 10.00 Overcast OVC044 35.6 21.2 56% 29.9 0.0
05 20:55 NW 3 10.00 Overcast OVC044 35.6 21.2 56% 29.9 0.0
05 20:35 NW 5 10.00 Overcast OVC046 35.6 21.2 56% 32 29.89 0.0
05 20:15 NW 6 10.00 Overcast OVC048 37.4 21.2 52% 33 29.89 0.0
05 19:55 NW 8 10.00 Overcast OVC050 37.4 21.2 52% 32 29.89 0.0
05 19:35 NW 8 10.00 Overcast OVC048 37.4 21.2 52% 32 29.88 0.0
05 19:16 NW 9 10.00 Overcast OVC050 37.4 21.2 52% 31 29.88 0.0
05 18:55 NW 9 10.00 Overcast OVC050 37.4 21.2 52% 31 29.87 0.0
05 18:35 NW 10 10.00 Overcast OVC050 39.2 19.4 45% 33 29.87 0.0
05 18:15 NW 10 10.00 Overcast SCT044 OVC050 39.2 21.2 48% 33 29.86 0.0
05 17:55 N 7 10.00 Overcast SCT044 OVC050 39.2 21.2 48% 35 29.86 0.0
05 17:35 NW 9 10.00 Overcast SCT041 OVC050 39.2 23 52% 34 29.86 0.0
05 17:15 NW 10 G 20 10.00 Overcast BKN046 OVC050 39.2 23 52% 33 29.86 0.0
05 16:56 NW 8 10.00 Overcast OVC048 39.2 21.2 48% 34 29.85 0.0
05 16:35 NW 10 10.00 Overcast OVC048 41 21.2 45% 35 29.85 0.0
05 16:15 NW 9 10.00 Overcast OVC050 41 21.2 45% 36 29.84 0.0
05 15:55 NW 7 10.00 Overcast OVC050 42.8 21.2 42% 39 29.84 0.0
05 15:35 NW 8 G 16 10.00 Mostly Cloudy BKN048 42.8 21.2 42% 39 29.84 0.0
05 15:15 W 8 G 20 10.00 Partly Cloudy SCT048 42.8 21.2 42% 39 29.84 0.0
05 14:55 NW 6 10.00 Mostly Cloudy BKN050 42.8 21.2 42% 40 29.84 0.0
05 14:36 NW 10 G 17 10.00 Mostly Cloudy BKN048 41 21.2 45% 35 29.84 0.0
05 14:15 W 9 G 16 10.00 Mostly Cloudy BKN048 41 21.2 45% 36 29.84 0.0
05 13:55 W 9 G 18 10.00 Overcast OVC048 41 21.2 45% 36 29.83 0.0
05 13:35 W 7 G 17 10.00 Mostly Cloudy BKN048 41 21.2 45% 37 29.83 0.0
05 13:15 W 10 G 18 10.00 Overcast OVC046 41 21.2 45% 35 29.83 0.0
05 12:55 NW 10 G 18 10.00 Overcast OVC042 39.2 21.2 48% 33 29.83 0.0
05 12:35 NW 10 G 16 10.00 Overcast OVC042 39.2 21.2 48% 33 29.83 0.0
05 12:16 W 9 G 17 10.00 Overcast OVC044 39.2 21.2 48% 34 29.83 0.0
05 11:55 NW 10 10.00 Overcast OVC043 39.2 21.2 48% 33 29.82 0.0
05 11:35 NW 8 10.00 Overcast OVC045 39.2 21.2 48% 34 29.82 0.0
05 11:15 NW 9 G 18 10.00 Overcast OVC044 39.2 21.2 48% 34 29.82 0.0
05 10:55 W 13 G 17 10.00 Mostly Cloudy BKN042 BKN055 41 21.2 45% 34 29.81 0.0
05 10:35 W 8 G 20 10.00 Overcast BKN042 OVC055 37.4 21.2 52% 32 29.81 0.0
05 10:15 W 8 G 20 10.00 Overcast BKN042 OVC055 37.4 21.2 52% 32 29.81 0.0
05 09:56 NW 9 G 17 10.00 Mostly Cloudy BKN042 BKN055 35.6 21.2 56% 29 29.81 0.0
05 09:35 W 12 G 20 10.00 Mostly Cloudy BKN044 37.4 21.2 52% 30 29.8 0.0
05 09:15 NW 10 G 16 10.00 Mostly Cloudy BKN042 35.6 21.2 56% 29 29.8 0.0
05 08:55 NW 7 10.00 Mostly Cloudy SCT038 BKN047 35.6 21.2 56% 31 29.79 0.0
05 08:35 W 6 10.00 Mostly Cloudy BKN049 BKN075 35.6 21.2 56% 31 29.79 0.0
05 08:15 W 7 10.00 Mostly Cloudy SCT049 BKN075 35.6 21.2 56% 31 29.78 0.0
05 07:55 W 7 10.00 Partly Cloudy SCT047 SCT075 33.8 21.2 60% 28 29.78 0.0
05 07:36 NW 8 10.00 Mostly Cloudy SCT047 BKN075 33.8 21.2 60% 28 29.77 0.0
05 07:15 NW 6 10.00 Mostly Cloudy SCT047 SCT055 BKN075 33.8 21.2 60% 29 29.76 0.0
05 06:55 NW 6 10.00 Overcast SCT047 OVC075 32 21.2 64% 27 29.76 0.0
05 06:35 W 5 10.00 Overcast OVC075 32 21.2 64% 28 29.75 0.0
05 06:15 NW 6 10.00 Overcast OVC075 30.2 21.2 69% 25 29.75 0.0
05 05:55 NW 5 10.00 Overcast OVC075 30.2 21.2 69% 26 29.74 0.0
05 05:35 NW 6 10.00 Overcast OVC075 30.2 21.2 69% 25 29.74 0.0
05 05:15 W 8 10.00 Mostly Cloudy BKN075 30.2 21.2 69% 23 29.74 0.0
05 04:56 W 6 10.00 Fair CLR 30.2 21.2 69% 25 29.74 0.0
05 04:35 NW 5 10.00 Fair CLR 30.2 21.2 69% 26 29.73 0.0
05 04:15 W 7 10.00 Fair CLR 32 21.2 64% 26 29.73 0.0
05 03:55 NW 8 10.00 Fair CLR 32 21.2 64% 25 29.72 0.0
05 03:35 W 8 10.00 Fair CLR 33.8 21.2 60% 28 29.72 0.0
05 03:15 W 7 10.00 Fair CLR 33.8 21.2 60% 28 29.71 0.0
05 02:55 NW 7 10.00 Fair CLR 33.8 21.2 60% 28 29.71 0.0
05 02:36 NW 10 G 22 10.00 Fair CLR 35.6 21.2 56% 29 29.71 0.0
05 02:15 NW 7 10.00 Fair CLR 35.6 23 60% 31 29.71 0.0
05 01:55 NW 8 10.00 Fair CLR 35.6 23 60% 30 29.7 0.0
05 01:35 NW 7 10.00 Fair CLR 35.6 24.8 65% 31 29.7 0.0
05 01:15 NW 8 10.00 Partly Cloudy SCT090 37.4 23 56% 32 29.7 0.0
05 00:55 NW 10 G 18 10.00 Fair CLR 37.4 23 56% 31 29.69 0.0
05 00:36 NW 5 10.00 Partly Cloudy SCT090 37.4 21.2 52% 34 29.69 0.0
05 00:15 NW 6 10.00 Mostly Cloudy BKN090 37.4 23 56% 33 29.69 0.0
04 23:55 NW 5 10.00 Partly Cloudy SCT090 37.4 24.8 60% 34 29.68 0.0
04 23:35 NW 7 10.00 Partly Cloudy SCT090 39.2 24.8 56% 35 29.68 0.0
04 23:15 NW 6 10.00 Mostly Cloudy BKN090 39.2 24.8 56% 36 29.68 0.0
04 22:55 NW 5 10.00 Mostly Cloudy BKN090 41 24.8 53% 38 29.68 0.0
04 22:35 W 6 10.00 Mostly Cloudy BKN090 42.8 24.8 49% 40 29.67 0.0
04 22:16 W 8 10.00 Overcast SCT070 OVC090 42.8 24.8 49% 39 29.67 0.0
04 21:55 W 3 10.00 Overcast SCT055 SCT070 OVC080 42.8 24.8 49% 29.67 0.0
04 21:35 W 7 G 16 10.00 Overcast OVC080 42.8 24.8 49% 39 29.66 0.0
04 21:15 W 7 10.00 Overcast OVC080 42.8 24.8 49% 39 29.65 0.0
04 20:55 NW 5 10.00 Overcast OVC080 42.8 24.8 49% 41 29.65 0.0
04 20:35 NW 7 10.00 Overcast SCT065 OVC080 42.8 23 46% 39 29.64 0.0
04 20:15 NW 9 10.00 Mostly Cloudy SCT049 BKN065 BKN080 44.6 23 43% 40 29.64 0.0
04 19:56 W 3 10.00 Mostly Cloudy BKN080 44.6 21.2 39% 29.63 0.0
04 19:35 W 10 G 16 10.00 Overcast OVC080 44.6 21.2 39% 40 29.63 0.0
04 19:15 NW 8 10.00 Mostly Cloudy BKN080 44.6 21.2 39% 41 29.62 0.0
04 18:55 W 8 G 16 10.00 Partly Cloudy SCT070 SCT080 44.6 19.4 37% 41 29.62 0.0
04 18:35 W 13 G 22 10.00 Mostly Cloudy BKN070 44.6 19.4 37% 39 29.62 0.0
04 18:15 NW 12 G 18 10.00 Partly Cloudy SCT070 46.4 19.4 34% 42 29.62 0.0
04 17:55 W 13 G 20 10.00 Partly Cloudy SCT070 46.4 19.4 34% 41 29.61 0.0
04 17:36 NW 15 G 22 10.00 Mostly Cloudy BKN060 48.2 19.4 32% 43 29.6 0.0
04 17:15 W 12 G 24 10.00 Mostly Cloudy BKN060 46.4 21.2 37% 42 29.61 0.0
04 16:55 NW 18 G 26 10.00 Overcast OVC060 44.6 23 43% 37 29.6 0.0
04 16:35 NW 12 G 20 10.00 Overcast OVC060 46.4 23 40% 42 29.59 0.0
04 16:15 NW 13 G 17 10.00 Overcast OVC050 46.4 24.8 43% 41 29.59 0.0
04 15:55 NW 13 G 24 10.00 Overcast OVC050 46.4 24.8 43% 41 29.58 0.0
04 15:35 NW 9 G 21 10.00 Overcast BKN050 OVC055 46.4 24.8 43% 42 29.58 0.0
04 15:16 W 17 G 23 10.00 Overcast OVC050 46.4 24.8 43% 40 29.57 0.0
04 14:55 NW 14 G 22 10.00 Overcast BKN048 OVC050 46.4 26.6 46% 41 29.57 0.0
04 14:35 W 9 G 20 10.00 Mostly Cloudy BKN046 BKN050 46.4 28.4 50% 42 29.56 0.0
04 14:15 W 12 G 18 10.00 Mostly Cloudy SCT046 BKN050 46.4 26.6 46% 42 29.55 0.0
Date Time (cdt) Wind (mph) Vis. (mi.) Weather Sky Cond. Air Dwpt Max. Min. Relative Humidity Wind Chill (°F) Heat Index (°F) altimeter (in) sea level (mb) 1 hr 3 hr 6 hr
6 hour
Temperature (ºF) Pressure Precipitation (in)